createdAt,value
2024-04-14T00:01:42.052Z,101008.06
2024-04-14T00:03:46.796Z,101013.59
2024-04-14T00:05:52.297Z,101008.59
2024-04-14T00:07:54.152Z,101013.13
2024-04-14T00:09:59.231Z,101016.16
2024-04-14T00:12:01.117Z,101009.81
2024-04-14T00:14:05.606Z,101004.34
2024-04-14T00:16:08.257Z,101009.31
2024-04-14T00:18:13.008Z,100999.94
2024-04-14T00:20:18.257Z,101006.00
2024-04-14T00:22:23.438Z,100977.81
2024-04-14T00:24:25.616Z,100995.28
2024-04-14T00:26:30.336Z,100996.06
2024-04-14T00:28:32.245Z,100962.66
2024-04-14T00:30:36.700Z,100969.84
2024-04-14T00:32:39.114Z,100977.19
2024-04-14T00:34:45.430Z,100972.41
2024-04-14T00:36:51.086Z,100970.66
2024-04-14T00:38:56.009Z,100965.41
2024-04-14T00:40:58.851Z,100963.81
2024-04-14T00:43:04.358Z,100957.75
2024-04-14T00:45:07.713Z,100957.47
2024-04-14T00:47:12.315Z,100957.97
2024-04-14T00:49:14.309Z,100954.69
2024-04-14T00:51:16.924Z,100956.09
2024-04-14T00:53:25.488Z,100928.88
2024-04-14T00:55:27.554Z,100953.31
2024-04-14T00:57:32.411Z,100938.94
2024-04-14T00:59:34.603Z,100945.09
2024-04-14T01:01:39.237Z,100929.16
2024-04-14T01:03:41.566Z,100943.72
2024-04-14T01:05:46.498Z,100941.44
2024-04-14T01:07:48.992Z,100944.41
2024-04-14T01:09:56.691Z,100936.41
2024-04-14T01:11:58.711Z,100911.47
2024-04-14T01:14:06.818Z,100935.66
2024-04-14T01:16:09.608Z,100931.97
2024-04-14T01:18:14.482Z,100911.72
2024-04-14T01:20:16.519Z,100913.22
2024-04-14T01:22:21.207Z,100919.31
2024-04-14T01:24:24.262Z,100904.03
2024-04-14T01:26:31.656Z,100912.78
2024-04-14T01:28:33.544Z,100916.78
2024-04-14T01:30:41.099Z,100902.78
2024-04-14T01:32:43.094Z,100915.06
2024-04-14T01:34:47.701Z,100914.81
2024-04-14T01:36:49.676Z,100913.28
2024-04-14T01:38:54.645Z,100880.72
2024-04-14T01:40:56.590Z,100891.69
2024-04-14T01:43:04.098Z,100908.75
2024-04-14T01:45:11.018Z,100903.78
2024-04-14T01:47:15.799Z,100896.03
2024-04-14T01:49:18.089Z,100896.03
2024-04-14T01:51:22.975Z,100899.53
2024-04-14T01:53:24.898Z,100882.72
2024-04-14T01:55:29.466Z,100893.81
2024-04-14T01:57:33.630Z,100895.03
2024-04-14T01:59:41.698Z,100888.63
2024-04-14T02:01:43.657Z,100897.97
2024-04-14T02:03:49.756Z,100876.56
2024-04-14T02:05:57.051Z,100889.03
2024-04-14T02:08:01.996Z,100902.28
2024-04-14T02:10:04.710Z,100890.25
2024-04-14T02:12:10.058Z,100890.16
2024-04-14T02:14:11.978Z,100885.00
2024-04-14T02:16:19.639Z,100896.84
2024-04-14T02:18:21.908Z,100898.16
2024-04-14T02:20:26.461Z,100876.56
2024-04-14T02:22:28.338Z,100829.91
2024-04-14T02:24:33.922Z,100899.06
2024-04-14T02:26:35.933Z,100908.38
2024-04-14T02:28:40.458Z,100907.41
2024-04-14T02:30:42.375Z,100906.28
2024-04-14T02:32:51.928Z,100912.72
2024-04-14T02:34:54.173Z,100911.50
2024-04-14T02:36:58.850Z,100912.13
2024-04-14T02:39:00.780Z,100919.91
2024-04-14T02:41:06.561Z,100894.41
2024-04-14T02:43:09.553Z,100918.78
2024-04-14T02:45:14.446Z,100917.06
2024-04-14T02:47:16.342Z,100897.63
2024-04-14T02:49:23.813Z,100926.28
2024-04-14T02:51:25.825Z,100907.56
2024-04-14T02:53:32.805Z,100889.75
2024-04-14T02:55:34.694Z,100917.66
2024-04-14T02:57:39.574Z,100919.25
2024-04-14T02:59:41.519Z,100921.72
2024-04-14T03:01:46.114Z,100916.25
2024-04-14T03:03:49.576Z,100908.97
2024-04-14T03:06:04.851Z,100913.81
2024-04-14T03:08:07.635Z,100919.16
2024-04-14T03:10:13.605Z,100919.63
2024-04-14T03:12:15.535Z,100916.72
2024-04-14T03:14:20.123Z,100921.16
2024-04-14T03:16:22.782Z,100920.53
2024-04-14T03:18:28.963Z,100921.69
2024-04-14T03:20:30.838Z,100917.66
2024-04-14T03:22:38.105Z,100926.63
2024-04-14T03:24:40.055Z,100928.69
2024-04-14T03:26:44.896Z,100915.88
2024-04-14T03:28:46.817Z,100918.63
2024-04-14T03:30:51.538Z,100910.06
2024-04-14T03:32:54.103Z,100914.84
2024-04-14T03:34:59.037Z,100911.84
2024-04-14T03:37:03.618Z,100923.63
2024-04-14T03:39:11.792Z,100930.81
2024-04-14T03:41:14.136Z,100939.13
2024-04-14T03:43:18.787Z,100943.59
2024-04-14T03:45:23.516Z,100944.81
2024-04-14T03:47:28.419Z,100912.06
2024-04-14T03:49:31.111Z,100933.84
2024-04-14T03:51:35.806Z,100922.75
2024-04-14T03:53:37.829Z,100934.19
2024-04-14T03:55:45.381Z,100929.19
2024-04-14T03:57:47.347Z,100944.41
2024-04-14T03:59:52.435Z,100932.78
2024-04-14T04:01:54.273Z,100932.63
2024-04-14T04:03:59.389Z,100947.25
2024-04-14T04:06:01.363Z,100927.59
2024-04-14T04:08:08.239Z,100959.44
2024-04-14T04:10:10.440Z,100954.19
2024-04-14T04:12:17.509Z,100934.38
2024-04-14T04:14:19.295Z,100941.38
2024-04-14T04:16:23.770Z,100942.59
2024-04-14T04:18:26.019Z,100955.56
2024-04-14T04:20:30.916Z,100953.78
2024-04-14T04:22:32.769Z,100941.53
2024-04-14T04:24:37.503Z,100958.19
2024-04-14T04:26:39.484Z,100948.50
2024-04-14T04:28:46.563Z,100941.44
2024-04-14T04:30:48.524Z,100964.78
2024-04-14T04:32:53.078Z,100952.22
2024-04-14T04:34:55.314Z,100969.22
2024-04-14T04:36:59.841Z,100980.84
2024-04-14T04:39:04.037Z,100985.75
2024-04-14T04:41:09.447Z,100990.00
2024-04-14T04:43:11.299Z,100997.41
2024-04-14T04:45:18.678Z,100998.41
2024-04-14T04:47:20.780Z,100998.72
2024-04-14T04:49:25.585Z,100995.97
2024-04-14T04:51:28.875Z,101018.44
2024-04-14T04:53:33.862Z,101018.34
2024-04-14T04:55:35.749Z,101002.97
2024-04-14T04:57:40.256Z,101024.31
2024-04-14T04:59:42.158Z,101028.75
2024-04-14T05:01:51.010Z,101041.66
2024-04-14T05:03:53.749Z,101027.88
2024-04-14T05:05:59.443Z,101048.47
2024-04-14T05:08:01.687Z,101031.38
2024-04-14T05:10:08.041Z,101029.31
2024-04-14T05:12:10.096Z,101016.91
2024-04-14T05:14:14.558Z,101037.31
2024-04-14T05:16:16.398Z,101044.97
2024-04-14T05:18:24.166Z,101045.50
2024-04-14T05:20:26.687Z,101061.31
2024-04-14T05:22:31.399Z,101045.97
2024-04-14T05:24:33.562Z,101059.50
2024-04-14T05:26:38.100Z,101063.56
2024-04-14T05:28:40.071Z,101063.94
2024-04-14T05:30:44.808Z,101078.25
2024-04-14T05:32:46.783Z,101078.59
2024-04-14T05:34:56.523Z,101061.84
2024-04-14T05:36:58.691Z,101052.50
2024-04-14T05:39:03.507Z,101068.41
2024-04-14T05:41:05.652Z,101072.94
2024-04-14T05:43:07.518Z,101085.03
2024-04-14T05:45:34.387Z,101074.28
2024-04-14T05:47:36.462Z,101077.69
2024-04-14T05:49:41.276Z,101088.16
2024-04-14T05:51:45.910Z,101081.53
2024-04-14T05:53:50.416Z,101072.06
2024-04-14T05:55:52.266Z,101079.81
2024-04-14T05:57:56.895Z,101097.59
2024-04-14T05:59:58.759Z,101078.25
2024-04-14T06:02:03.132Z,101087.03
2024-04-14T06:04:05.247Z,101058.03
2024-04-14T06:06:10.229Z,101095.34
2024-04-14T06:08:14.674Z,101109.28
2024-04-14T06:10:19.351Z,101112.41
2024-04-14T06:12:21.207Z,101099.28
2024-04-14T06:14:26.660Z,101097.16
2024-04-14T06:16:28.559Z,101109.59
2024-04-14T06:18:33.147Z,101113.19
2024-04-14T06:20:35.914Z,101114.63
2024-04-14T06:22:40.796Z,101116.34
2024-04-14T06:24:45.452Z,101123.16
2024-04-14T06:26:50.061Z,101116.22
2024-04-14T06:28:52.021Z,101098.66
2024-04-14T06:30:57.395Z,101109.19
2024-04-14T06:32:59.709Z,101119.44
2024-04-14T06:35:04.303Z,101120.09
2024-04-14T06:37:06.149Z,101136.25
2024-04-14T06:39:10.638Z,101144.13
2024-04-14T06:41:15.183Z,101114.72
2024-04-14T06:43:19.711Z,101104.03
2024-04-14T06:45:21.589Z,101124.25
2024-04-14T06:47:26.442Z,101146.50
2024-04-14T06:49:28.255Z,101145.75
2024-04-14T06:51:41.043Z,101138.00
2024-04-14T06:53:43.001Z,101149.72
2024-04-14T06:55:51.555Z,101134.50
2024-04-14T06:57:56.061Z,101162.09
2024-04-14T07:00:00.661Z,101148.63
2024-04-14T07:02:02.602Z,101151.47
2024-04-14T07:04:07.855Z,101154.63
2024-04-14T07:06:10.283Z,101155.94
2024-04-14T07:08:14.705Z,101154.03
2024-04-14T07:10:17.015Z,101157.25
2024-04-14T07:12:21.791Z,101158.34
2024-04-14T07:14:27.131Z,101156.84
2024-04-14T07:16:31.831Z,101175.78
2024-04-14T07:18:33.730Z,101168.59
2024-04-14T07:20:41.712Z,101179.66
2024-04-14T07:22:45.354Z,101175.91
2024-04-14T07:24:51.050Z,101173.97
2024-04-14T07:26:53.570Z,101168.97
2024-04-14T07:28:58.284Z,101182.69
2024-04-14T07:31:03.322Z,101170.78
2024-04-14T07:33:08.170Z,101196.69
2024-04-14T07:35:10.947Z,101190.06
2024-04-14T07:37:15.500Z,101171.25
2024-04-14T07:39:17.645Z,101173.31
2024-04-14T07:41:23.594Z,101190.91
2024-04-14T07:43:25.419Z,101175.44
2024-04-14T07:45:30.035Z,101202.19
2024-04-14T07:47:34.756Z,101179.59
2024-04-14T07:49:40.117Z,101195.59
2024-04-14T07:51:42.197Z,101206.00
2024-04-14T07:53:46.686Z,101222.34
2024-04-14T07:55:48.513Z,101170.66
2024-04-14T07:57:53.019Z,101198.38
2024-04-14T07:59:54.863Z,101192.91
2024-04-14T08:01:59.620Z,101224.25
2024-04-14T08:04:04.520Z,101230.59
2024-04-14T08:06:09.404Z,101218.97
2024-04-14T08:08:11.490Z,101213.44
2024-04-14T08:10:15.904Z,101205.28
2024-04-14T08:12:17.751Z,101214.13
2024-04-14T08:14:22.240Z,101228.06
2024-04-14T08:16:24.244Z,101215.13
2024-04-14T08:18:28.816Z,101231.34
2024-04-14T08:20:33.389Z,101245.03
2024-04-14T08:22:38.003Z,101239.72
2024-04-14T08:24:39.820Z,101248.78
2024-04-14T08:26:44.634Z,101245.97
2024-04-14T08:28:46.891Z,101246.75
2024-04-14T08:30:51.667Z,101233.19
2024-04-14T08:32:53.557Z,101245.88
2024-04-14T08:34:58.131Z,101244.16
2024-04-14T08:37:02.658Z,101258.94
2024-04-14T08:39:07.440Z,101263.09
2024-04-14T08:41:09.392Z,101204.28
2024-04-14T08:43:14.093Z,101222.59
2024-04-14T08:45:16.240Z,101259.91
2024-04-14T08:47:21.220Z,101257.88
2024-04-14T08:49:23.693Z,101263.50
2024-04-14T08:51:29.250Z,101267.00
2024-04-14T08:53:34.051Z,101272.06
2024-04-14T08:55:39.168Z,101273.66
2024-04-14T08:57:41.446Z,101283.19
2024-04-14T08:59:45.923Z,101264.44
2024-04-14T09:01:47.846Z,101274.41
2024-04-14T09:03:52.587Z,101263.53
2024-04-14T09:05:55.080Z,101262.50
2024-04-14T09:07:58.180Z,101271.13
2024-04-14T09:10:05.799Z,101282.13
2024-04-14T09:12:11.862Z,101275.00
2024-04-14T09:14:16.376Z,101275.94
2024-04-14T09:16:18.956Z,101281.63
2024-04-14T09:18:23.572Z,101293.53
2024-04-14T09:20:25.492Z,101308.44
2024-04-14T09:22:33.438Z,101274.63
2024-04-14T09:24:35.562Z,101288.63
2024-04-14T09:26:45.515Z,101296.69
2024-04-14T09:28:47.761Z,101302.31
2024-04-14T09:30:55.036Z,101301.78
2024-04-14T09:32:58.816Z,101315.56
2024-04-14T09:35:04.671Z,101269.13
2024-04-14T09:37:08.606Z,101310.28
2024-04-14T09:39:13.456Z,101316.13
2024-04-14T09:41:15.442Z,101298.88
2024-04-14T09:43:23.704Z,101306.88
2024-04-14T09:45:26.250Z,101283.31
2024-04-14T09:47:31.604Z,101300.53
2024-04-14T09:49:33.664Z,101304.97
2024-04-14T09:51:40.465Z,101319.84
2024-04-14T09:53:42.866Z,101329.41
2024-04-14T09:55:47.319Z,101307.03
2024-04-14T09:57:50.353Z,101321.84
2024-04-14T09:59:59.823Z,101317.97
2024-04-14T10:02:05.327Z,101319.94
2024-04-14T10:04:11.024Z,101282.97
2024-04-14T10:06:14.108Z,101318.63
2024-04-14T10:08:21.273Z,101323.16
2024-04-14T10:10:24.599Z,101290.16
2024-04-14T10:12:29.656Z,101261.72
2024-04-14T10:14:40.851Z,101301.69
2024-04-14T10:16:58.700Z,101298.09
2024-04-14T10:19:04.697Z,101310.97
2024-04-14T10:21:09.571Z,101323.25
2024-04-14T10:23:16.688Z,101325.16
2024-04-14T10:25:23.705Z,101308.69
2024-04-14T10:27:25.526Z,101326.97
2024-04-14T10:29:30.208Z,101329.94
2024-04-14T10:31:35.293Z,101321.22
2024-04-14T10:33:43.277Z,101303.84
2024-04-14T10:35:45.348Z,101307.72
2024-04-14T10:37:56.848Z,101318.94
2024-04-14T10:39:59.040Z,101326.69
2024-04-14T10:42:03.838Z,101343.78
2024-04-14T10:44:15.292Z,101331.63
2024-04-14T10:46:19.913Z,101345.22
2024-04-14T10:48:22.040Z,101351.91
2024-04-14T10:50:31.614Z,101341.88
2024-04-14T10:52:33.525Z,101354.97
2024-04-14T10:54:41.093Z,101355.66
2024-04-14T10:56:45.711Z,101340.81
2024-04-14T10:58:52.733Z,101345.34
2024-04-14T11:00:55.518Z,101337.75
2024-04-14T11:03:02.002Z,101371.91
2024-04-14T11:05:04.385Z,101341.91
2024-04-14T11:07:12.577Z,101352.00
2024-04-14T11:09:15.996Z,101330.66
2024-04-14T11:11:21.002Z,101342.22
2024-04-14T11:13:25.762Z,101348.03
2024-04-14T11:15:31.300Z,101366.88
2024-04-14T11:17:36.202Z,101348.19
2024-04-14T11:19:41.203Z,101295.53
2024-04-14T11:21:43.136Z,101354.53
2024-04-14T11:23:50.822Z,101360.03
2024-04-14T11:25:53.421Z,101354.56
2024-04-14T11:27:58.847Z,101351.97
2024-04-14T11:30:01.108Z,101340.31
2024-04-14T11:32:25.186Z,101323.25
2024-04-14T11:34:30.352Z,101350.97
2024-04-14T11:36:35.924Z,101349.50
2024-04-14T11:38:40.582Z,101334.28
2024-04-14T11:40:47.649Z,101354.84
2024-04-14T11:42:52.845Z,101355.44
2024-04-14T11:44:56.520Z,101349.28
2024-04-14T11:47:03.452Z,101348.91
2024-04-14T11:49:06.294Z,101359.28
2024-04-14T11:51:10.717Z,101337.97
2024-04-14T11:53:12.986Z,101349.09
2024-04-14T11:55:18.413Z,101326.28
2024-04-14T11:57:23.577Z,101315.78
2024-04-14T11:59:27.994Z,101339.19
2024-04-14T12:01:29.946Z,101272.16
2024-04-14T12:03:34.540Z,101344.81
2024-04-14T12:05:36.372Z,101338.03
2024-04-14T12:07:41.290Z,101334.25
2024-04-14T12:09:43.069Z,101249.75
2024-04-14T12:11:47.935Z,101339.53
2024-04-14T12:13:53.933Z,101319.47
2024-04-14T12:15:58.610Z,101329.44
2024-04-14T12:18:00.598Z,101326.00
2024-04-14T12:20:05.431Z,101325.31
2024-04-14T12:22:07.362Z,101322.00
2024-04-14T12:24:12.643Z,101309.44
2024-04-14T12:26:16.601Z,101309.56
2024-04-14T12:28:21.333Z,101311.22
2024-04-14T12:30:35.670Z,101303.97
2024-04-14T12:32:45.184Z,101317.88
2024-04-14T12:34:47.550Z,101304.81
2024-04-14T12:36:52.329Z,101329.69
2024-04-14T12:38:54.482Z,101326.47
2024-04-14T12:40:59.071Z,101316.72
2024-04-14T12:43:01.042Z,101317.78
2024-04-14T12:45:05.832Z,101323.47
2024-04-14T12:47:10.357Z,101326.34
2024-04-14T12:49:18.962Z,101314.81
2024-04-14T12:51:21.329Z,101297.34
2024-04-14T12:53:25.957Z,101313.72
2024-04-14T12:55:27.789Z,101321.25
2024-04-14T12:57:32.519Z,101314.16
2024-04-14T12:59:34.292Z,101306.34
2024-04-14T13:01:39.136Z,101291.50
2024-04-14T13:03:43.716Z,101275.94
2024-04-14T13:05:51.072Z,101310.47
2024-04-14T13:07:53.396Z,101320.72
2024-04-14T13:09:57.833Z,101317.66
2024-04-14T13:12:02.152Z,101308.41
2024-04-14T13:14:07.995Z,101302.72
2024-04-14T13:16:11.159Z,101297.63
2024-04-14T13:18:15.704Z,101310.47
2024-04-14T13:20:20.415Z,101303.06
2024-04-14T13:22:25.228Z,101306.38
2024-04-14T13:24:26.966Z,101299.22
2024-04-14T13:26:33.992Z,101316.16
2024-04-14T13:28:35.786Z,101294.28
2024-04-14T13:30:40.263Z,101307.88
2024-04-14T13:32:42.215Z,101299.16
2024-04-14T13:34:46.788Z,101290.13
2024-04-14T13:36:52.076Z,101270.00
2024-04-14T13:38:54.031Z,101291.00
2024-04-14T13:41:00.129Z,101285.13
2024-04-14T13:43:02.023Z,101274.91
2024-04-14T13:45:06.782Z,101268.09
2024-04-14T13:47:09.643Z,101280.22
2024-04-14T13:49:15.103Z,101274.44
2024-04-14T13:51:17.079Z,101271.78
2024-04-14T13:53:24.400Z,101265.81
2024-04-14T13:55:26.507Z,101288.38
2024-04-14T13:57:31.493Z,101258.44
2024-04-14T13:59:33.402Z,101258.06
2024-04-14T14:01:38.248Z,101255.44
2024-04-14T14:03:40.320Z,101248.78
2024-04-14T14:05:44.821Z,101216.00
2024-04-14T14:07:46.943Z,101238.56
2024-04-14T14:09:54.332Z,101247.09
2024-04-14T14:11:56.108Z,101266.19
2024-04-14T14:14:02.361Z,101245.31
2024-04-14T14:16:08.419Z,101245.22
2024-04-14T14:18:13.001Z,101241.81
2024-04-14T14:20:16.135Z,101238.75
2024-04-14T14:22:22.964Z,101240.94
2024-04-14T14:24:24.760Z,101255.13
2024-04-14T14:26:29.228Z,101247.88
2024-04-14T14:28:34.484Z,101234.16
2024-04-14T14:30:37.940Z,101250.97
2024-04-14T14:32:43.369Z,101224.88
2024-04-14T14:35:03.996Z,101236.13
2024-04-14T14:37:06.018Z,101264.25
2024-04-14T14:39:10.819Z,101247.38
2024-04-14T14:41:14.687Z,101241.72
2024-04-14T14:43:22.138Z,101239.53
2024-04-14T14:45:28.478Z,101235.84
2024-04-14T14:47:30.491Z,101231.59
2024-04-14T14:49:36.548Z,101238.88
2024-04-14T14:51:38.847Z,101242.72
2024-04-14T14:53:43.436Z,101237.06
2024-04-14T14:55:47.900Z,101214.94
2024-04-14T14:57:53.477Z,101245.66
2024-04-14T14:59:58.110Z,101223.16
2024-04-14T15:02:03.239Z,101220.69
2024-04-14T15:04:05.614Z,101237.53
2024-04-14T15:06:12.946Z,101236.31
2024-04-14T15:08:15.664Z,101244.06
2024-04-14T15:10:23.280Z,101247.75
2024-04-14T15:12:25.117Z,101242.28
2024-04-14T15:14:29.534Z,101228.56
2024-04-14T15:16:34.300Z,101233.66
2024-04-14T15:18:39.855Z,101241.97
2024-04-14T15:20:41.943Z,101229.41
2024-04-14T15:22:46.674Z,101243.91
2024-04-14T15:24:50.078Z,101243.88
2024-04-14T15:26:54.944Z,101245.13
2024-04-14T15:28:57.675Z,101238.88
2024-04-14T15:31:03.679Z,101246.06
2024-04-14T15:33:08.492Z,101248.72
2024-04-14T15:35:14.346Z,101228.75
2024-04-14T15:37:16.576Z,101255.88
2024-04-14T15:39:20.983Z,101241.59
2024-04-14T15:41:22.847Z,101216.28
2024-04-14T15:43:27.311Z,101228.53
2024-04-14T15:45:29.171Z,101237.06
2024-04-14T15:47:33.640Z,101244.34
2024-04-14T15:49:38.247Z,101230.38
2024-04-14T15:51:42.707Z,101224.88
2024-04-14T15:53:44.581Z,101214.31
2024-04-14T15:55:49.547Z,101214.81
2024-04-14T15:57:52.517Z,101236.75
2024-04-14T15:59:58.435Z,101232.44
2024-04-14T16:02:00.332Z,101230.13
2024-04-14T16:04:04.863Z,101236.69
2024-04-14T16:06:09.352Z,101229.41
2024-04-14T16:08:14.537Z,101227.56
2024-04-14T16:10:16.850Z,101222.72
2024-04-14T16:12:21.780Z,101220.38
2024-04-14T16:14:25.038Z,101215.81
2024-04-14T16:16:29.733Z,101219.34
2024-04-14T16:18:31.951Z,101215.16
2024-04-14T16:20:36.793Z,101203.13
2024-04-14T16:22:41.771Z,101216.56
2024-04-14T16:24:46.260Z,101211.94
2024-04-14T16:26:48.399Z,101197.38
2024-04-14T16:28:52.784Z,101229.91
2024-04-14T16:30:55.401Z,101222.03
2024-04-14T16:33:00.113Z,101217.31
2024-04-14T16:35:02.495Z,101210.06
2024-04-14T16:37:07.415Z,101217.00
2024-04-14T16:39:12.400Z,101216.53
2024-04-14T16:41:17.168Z,101214.31
2024-04-14T16:43:18.980Z,101217.69
2024-04-14T16:45:23.809Z,101221.50
2024-04-14T16:47:25.771Z,101228.78
2024-04-14T16:49:30.383Z,101222.28
2024-04-14T16:51:32.531Z,101214.69
2024-04-14T16:53:34.514Z,101212.56
2024-04-14T16:55:41.665Z,101226.84
2024-04-14T16:57:43.584Z,101148.31
2024-04-14T16:59:48.083Z,101224.78
2024-04-14T17:01:50.009Z,101200.19
2024-04-14T17:03:54.566Z,101226.88
2024-04-14T17:05:56.502Z,101233.28
2024-04-14T17:07:58.360Z,101222.22
2024-04-14T17:10:02.971Z,101211.13
2024-04-14T17:12:08.430Z,101229.94
2024-04-14T17:14:12.929Z,101222.34
2024-04-14T17:16:15.205Z,101217.22
2024-04-14T17:18:20.007Z,101198.25
2024-04-14T17:20:21.926Z,101219.00
2024-04-14T17:22:26.902Z,101222.06
2024-04-14T17:24:30.456Z,101195.94
2024-04-14T17:26:35.685Z,101223.72
2024-04-14T17:28:41.680Z,101203.81
2024-04-14T17:30:46.663Z,101226.31
2024-04-14T17:32:48.673Z,101224.28
2024-04-14T17:34:54.194Z,101233.41
2024-04-14T17:36:56.102Z,101201.81
2024-04-14T17:39:00.548Z,101223.72
2024-04-14T17:41:02.682Z,101217.16
2024-04-14T17:43:07.409Z,101210.47
2024-04-14T17:45:14.485Z,101228.84
2024-04-14T17:47:22.359Z,101227.31
2024-04-14T17:49:24.155Z,101230.38
2024-04-14T17:51:28.750Z,101218.16
2024-04-14T17:53:31.852Z,101223.19
2024-04-14T17:55:36.350Z,101228.34
2024-04-14T17:57:38.242Z,101229.06
2024-04-14T17:59:42.886Z,101217.38
2024-04-14T18:01:48.932Z,101216.97
2024-04-14T18:03:54.525Z,101233.41
2024-04-14T18:05:57.842Z,101231.56
2024-04-14T18:08:02.282Z,101232.91
2024-04-14T18:10:04.428Z,101215.09
2024-04-14T18:12:10.103Z,101229.84
2024-04-14T18:14:15.117Z,101220.22
2024-04-14T18:16:20.135Z,101236.00
2024-04-14T18:18:26.148Z,101234.16
2024-04-14T18:20:33.746Z,101206.91
2024-04-14T18:22:35.598Z,101228.22
2024-04-14T18:24:40.956Z,101223.34
2024-04-14T18:26:42.788Z,101214.34
2024-04-14T18:28:50.125Z,101243.84
2024-04-14T18:30:52.135Z,101241.34
2024-04-14T18:32:56.876Z,101231.34
2024-04-14T18:35:01.284Z,101224.78
2024-04-14T18:37:06.097Z,101249.94
2024-04-14T18:39:08.179Z,101228.81
2024-04-14T18:41:12.636Z,101242.53
2024-04-14T18:43:14.613Z,101250.31
2024-04-14T18:45:19.392Z,101244.66
2024-04-14T18:47:26.749Z,101261.09
2024-04-14T18:49:31.495Z,101246.63
2024-04-14T18:51:37.738Z,101249.81
2024-04-14T18:53:42.894Z,101240.34
2024-04-14T18:55:54.498Z,101240.00
2024-04-14T18:58:02.439Z,101232.38
2024-04-14T19:00:10.231Z,101238.25
2024-04-14T19:02:14.783Z,101257.81
2024-04-14T19:04:16.675Z,101248.38
2024-04-14T19:06:21.397Z,101226.47
2024-04-14T19:08:26.725Z,101241.53
2024-04-14T19:10:31.231Z,101231.44
2024-04-14T19:12:34.507Z,101248.19
2024-04-14T19:14:41.789Z,101244.34
2024-04-14T19:16:44.851Z,101224.69
2024-04-14T19:18:49.744Z,101238.53
2024-04-14T19:20:53.631Z,101239.84
2024-04-14T19:22:55.500Z,101213.09
2024-04-14T19:25:02.684Z,101225.56
2024-04-14T19:27:05.483Z,101207.94
2024-04-14T19:29:11.749Z,101210.97
2024-04-14T19:31:17.467Z,101211.19
2024-04-14T19:33:20.261Z,101166.19
2024-04-14T19:35:25.880Z,101209.94
2024-04-14T19:37:31.366Z,101202.28
2024-04-14T19:39:37.531Z,101191.53
2024-04-14T19:41:42.147Z,101199.25
2024-04-14T19:43:49.810Z,101195.66
2024-04-14T19:45:53.186Z,101198.50
2024-04-14T19:47:58.585Z,101196.84
2024-04-14T19:50:00.534Z,101193.53
2024-04-14T19:52:09.037Z,101199.25
2024-04-14T19:54:10.896Z,101181.88
2024-04-14T19:56:15.694Z,101171.00
2024-04-14T19:58:20.271Z,101186.63
2024-04-14T20:00:25.036Z,101184.16
2024-04-14T20:02:27.206Z,101154.38
2024-04-14T20:04:32.795Z,101151.97
2024-04-14T20:06:35.111Z,101166.78
2024-04-14T20:08:39.605Z,101158.81
2024-04-14T20:10:41.462Z,101179.50
2024-04-14T20:12:46.424Z,101179.50
2024-04-14T20:14:51.474Z,101168.59
2024-04-14T20:16:56.473Z,101171.75
2024-04-14T20:18:58.566Z,101144.56
2024-04-14T20:21:03.051Z,101147.09
2024-04-14T20:23:04.890Z,101137.53
2024-04-14T20:25:09.850Z,101139.34
2024-04-14T20:27:11.948Z,101135.56
2024-04-14T20:29:19.637Z,101142.53
2024-04-14T20:31:24.087Z,101145.56
2024-04-14T20:33:26.325Z,101144.03
2024-04-14T20:35:31.087Z,101126.94
2024-04-14T20:37:33.172Z,101140.44
2024-04-14T20:39:38.968Z,101138.81
2024-04-14T20:41:42.456Z,101128.19
2024-04-14T20:43:47.296Z,101122.59
2024-04-14T20:45:49.106Z,101121.41
2024-04-14T20:47:57.173Z,101114.91
2024-04-14T20:49:59.042Z,101139.69
2024-04-14T20:52:04.008Z,101138.91
2024-04-14T20:54:07.180Z,101112.06
2024-04-14T20:56:12.267Z,101098.38
2024-04-14T20:58:17.489Z,101120.13
2024-04-14T21:00:22.409Z,101105.44
2024-04-14T21:02:24.347Z,101109.56
2024-04-14T21:04:39.341Z,101100.97
2024-04-14T21:06:49.103Z,101107.16
2024-04-14T21:08:53.990Z,101114.00
2024-04-14T21:11:02.556Z,101104.03
2024-04-14T21:13:07.332Z,101099.34
2024-04-14T21:15:11.234Z,101100.22
2024-04-14T21:17:15.701Z,101079.44
2024-04-14T21:19:17.723Z,101091.28
2024-04-14T21:21:25.187Z,101103.25
2024-04-14T21:23:27.069Z,101088.00
2024-04-14T21:25:31.570Z,101099.66
2024-04-14T21:27:33.493Z,101101.94
2024-04-14T21:29:38.903Z,101076.41
2024-04-14T21:31:42.307Z,101072.28
2024-04-14T21:33:47.926Z,101074.56
2024-04-14T21:35:49.908Z,101083.13
2024-04-14T21:37:57.452Z,101072.47
2024-04-14T21:39:59.440Z,101075.53
2024-04-14T21:42:06.332Z,101067.28
2024-04-14T21:44:08.166Z,101081.19
2024-04-14T21:46:13.141Z,101080.97
2024-04-14T21:48:15.081Z,101067.50
2024-04-14T21:50:20.317Z,101077.28
2024-04-14T21:52:22.177Z,101057.91
2024-04-14T21:54:29.500Z,101076.53
2024-04-14T21:56:32.293Z,101042.28
2024-04-14T21:58:36.507Z,101063.22
2024-04-14T22:00:41.300Z,101058.91
2024-04-14T22:02:43.294Z,101052.38
2024-04-14T22:04:50.104Z,101030.41
2024-04-14T22:06:52.140Z,101038.78
2024-04-14T22:08:56.898Z,101049.75
2024-04-14T22:11:01.659Z,101021.03
2024-04-14T22:13:06.441Z,101049.41
2024-04-14T22:15:08.435Z,101041.03
2024-04-14T22:17:13.063Z,101019.91
2024-04-14T22:19:16.452Z,101030.78
2024-04-14T22:21:20.890Z,101017.88
2024-04-14T22:23:22.721Z,101023.28
2024-04-14T22:25:27.144Z,100990.56
2024-04-14T22:27:32.215Z,101011.34
2024-04-14T22:29:36.568Z,100997.97
2024-04-14T22:31:38.535Z,101013.81
2024-04-14T22:33:43.053Z,101002.41
2024-04-14T22:35:45.018Z,100976.53
2024-04-14T22:37:53.408Z,101008.91
2024-04-14T22:39:55.503Z,100992.84
2024-04-14T22:41:59.900Z,101003.28
2024-04-14T22:44:04.720Z,100998.63
2024-04-14T22:46:09.826Z,100995.56
2024-04-14T22:48:11.846Z,100983.28
2024-04-14T22:50:16.815Z,101002.41
2024-04-14T22:52:18.737Z,101007.84
2024-04-14T22:54:25.040Z,100992.78
2024-04-14T22:56:27.721Z,101009.59
2024-04-14T22:58:32.447Z,101000.66
2024-04-14T23:00:37.032Z,100960.88
2024-04-14T23:02:41.706Z,100977.72
2024-04-14T23:04:47.581Z,100989.91
2024-04-14T23:06:52.500Z,100973.94
2024-04-14T23:08:54.299Z,100937.03
2024-04-14T23:10:59.356Z,100972.50
2024-04-14T23:13:01.266Z,100990.75
2024-04-14T23:15:05.871Z,100980.44
2024-04-14T23:17:11.359Z,100974.22
2024-04-14T23:19:15.842Z,100967.28
2024-04-14T23:21:17.646Z,100974.81
2024-04-14T23:23:22.434Z,100971.69
2024-04-14T23:25:24.198Z,100971.00
2024-04-14T23:27:28.840Z,100983.25
2024-04-14T23:29:30.696Z,100969.88
2024-04-14T23:31:35.140Z,100960.63
2024-04-14T23:33:39.539Z,100957.59
2024-04-14T23:35:44.550Z,100959.63
2024-04-14T23:37:46.645Z,100964.97
2024-04-14T23:39:51.334Z,100971.25